Gembloux, Belgium
Current Conditions -  °F | °C
As of 9:50 PM on Monday 22 Dec 2014 (Local Time) from EBCI Reporting Station
Light Rain Light Rain  
Wind Chill: 50°   Ceiling: 1200
Heat Index: 50°   Visibility: 6mi
Dew Point: 48°   Wind: 22mph
Humidity: 94%   Direction: 230°SW
Pressure: 30.18"   Gusts: 33mph
Location:  50.56°N, 4.7°E
Report Text: EBCI 222050Z 23019G29KT 9000 -RA SCT007 BKN012 10/09 Q1022 TEMPO 4000 BKN004
Loading
Personal Weather Stations






























Interactive Weather Map New forecast layout! Learn more

10-Day Weather Forecast

Advertisements
Track Severe Weather on mobile